Camden, IL (62319)

3:23 AM CDT on July 30, 2016 (GMT -0500)
Augusta | | Change Station

Elev 682 ft 40.23 °N, 90.95 °W | Updated 5 minutes ago

Overcast
Overcast
66.7 °F
Feels Like 66.7 °F
N
1.7
Wind Variable Wind from SW

Today
High -- | Low -- °F
--% Chance of Precip.
Yesterday
High -- | Low -- °F
Precip. -- in
Pressure 29.97 in
Visibility 5.0 miles
Clouds Overcast 400 ft
Dew Point 63 °F
Humidity 88%
Rainfall 0.00 in
Snow Depth Not available.
5:59 AM 8:18 PM
Waning Crescent, 15% visible
METAR KMQB 300815Z AUTO 32003KT 5SM BR OVC004 18/18 A2997 RMK AO2 T01810181
Pressure 29.97 in
Visibility 5.0 miles
Clouds Overcast 400 ft
Dew Point 63 °F
Humidity 88%
Rainfall 0.00 in
Snow Depth Not available.
5:59 AM 8:18 PM
Waning Crescent, 15% visible
METAR KMQB 300815Z AUTO 32003KT 5SM BR OVC004 18/18 A2997 RMK AO2 T01810181

10-Day Weather Forecast

Almanac

Astronomy

Jul. 30, 2016 Rise Set
Actual Time
Civil Twilight
Nautical Twilight
Astronomical Twilight
Moon
Length of Visible Light
Length of Day
Tomorrow will be .
, % of the Moon is Illuminated

Today's Extremes

State Highs State Lows

Community

WunderPhotos

Upload Photos

1,928,508 photos uploaded!

WunderBlog® & News

Nearby

Air Quality

  Air Quality AQ Index Pollutant
Not available.

Snow Depth

Station Depth Elevation

Earthquake Activity

City Distance Mag. Time & Date
Minimum magnitude displayed is 2.5.

Coastal Water Temperatures

Place Temperature

Stations

Nearby Weather Stations

Station Location Temp. Windchill Dew Point Humidity Wind Precip. Elev Updated Type
                   

Watches & Warnings

There are currently no watches in effect.